createdAt,value
2019-02-23T00:01:47.677Z,103401.12
2019-02-23T00:04:39.867Z,103396.81
2019-02-23T00:10:16.356Z,103386.94
2019-02-23T00:12:45.002Z,103380.38
2019-02-23T00:18:54.535Z,103376.89
2019-02-23T00:21:14.787Z,103385.16
2019-02-23T00:26:52.978Z,103374.99
2019-02-23T00:32:29.066Z,103377.09
2019-02-23T00:41:22.500Z,103371.59
2019-02-23T00:50:35.278Z,103372.09
2019-02-23T00:53:15.468Z,103374.16
2019-02-23T00:58:44.255Z,103375.34
2019-02-23T01:04:04.921Z,103373.08
2019-02-23T01:06:53.372Z,103372.83
2019-02-23T01:09:24.247Z,103374.41
2019-02-23T01:11:52.957Z,103384.20
2019-02-23T01:14:22.847Z,103342.13
2019-02-23T01:17:33.516Z,103342.78
2019-02-23T01:20:32.464Z,103376.17
2019-02-23T01:23:21.404Z,103377.78
2019-02-23T01:25:52.690Z,103380.94
2019-02-23T01:28:21.921Z,103379.14
2019-02-23T01:34:19.241Z,103370.53
2019-02-23T01:37:19.225Z,103376.39
2019-02-23T01:39:39.162Z,103376.39
2019-02-23T01:42:08.664Z,103377.53
2019-02-23T01:44:38.875Z,103385.38
2019-02-23T01:47:20.592Z,103382.30
2019-02-23T01:53:29.725Z,103379.70
2019-02-23T01:59:09.658Z,103373.05
2019-02-23T02:04:49.274Z,103381.03
2019-02-23T02:16:27.072Z,103368.95
2019-02-23T02:19:05.640Z,103367.09
2019-02-23T02:27:56.791Z,103372.41
2019-02-23T02:33:31.222Z,103371.42
2019-02-23T02:36:03.161Z,103369.52
2019-02-23T02:38:33.143Z,103369.02
2019-02-23T02:41:01.955Z,103369.02
2019-02-23T02:43:31.064Z,103367.66
2019-02-23T02:46:20.496Z,103367.66
2019-02-23T02:48:49.623Z,103369.80
2019-02-23T02:51:21.105Z,103368.94
2019-02-23T02:53:49.877Z,103368.73
2019-02-23T02:59:30.466Z,103360.34
2019-02-23T03:02:19.438Z,103362.17
2019-02-23T03:04:50.983Z,103363.55
2019-02-23T03:07:20.505Z,103364.01
2019-02-23T03:17:17.386Z,103360.34
2019-02-23T03:19:20.767Z,103358.17
2019-02-23T03:34:36.939Z,103353.41
2019-02-23T03:37:15.167Z,103354.88
2019-02-23T03:49:14.400Z,103345.48
2019-02-23T03:54:51.797Z,103352.90
2019-02-23T03:57:35.722Z,103352.90
2019-02-23T04:00:14.078Z,103354.63
2019-02-23T04:02:44.685Z,103354.55
2019-02-23T04:05:18.048Z,103355.12
2019-02-23T04:07:49.266Z,103349.39
2019-02-23T04:10:19.889Z,103351.27
2019-02-23T04:12:53.653Z,103356.59
2019-02-23T04:15:28.905Z,103360.48
2019-02-23T04:17:59.182Z,103361.45
2019-02-23T04:20:29.536Z,103368.60
2019-02-23T04:23:01.024Z,103368.05
2019-02-23T04:25:32.016Z,103372.03
2019-02-23T04:28:01.901Z,103374.56
2019-02-23T04:30:31.112Z,103385.77
2019-02-23T04:33:00.912Z,103381.05
2019-02-23T04:35:30.183Z,103389.06
2019-02-23T04:38:13.494Z,103394.42
2019-02-23T04:40:48.688Z,103392.34
2019-02-23T04:43:23.935Z,103392.34
2019-02-23T04:45:48.678Z,103391.40
2019-02-23T04:48:27.117Z,103389.39
2019-02-23T04:50:57.663Z,103392.44
2019-02-23T04:53:27.457Z,103399.25
2019-02-23T04:55:57.309Z,103399.25
2019-02-23T04:58:28.574Z,103395.23
2019-02-23T05:00:57.794Z,103398.02
2019-02-23T05:03:27.159Z,103398.64
2019-02-23T05:05:59.184Z,103398.64
2019-02-23T05:08:29.091Z,103402.16
2019-02-23T05:11:00.785Z,103404.19
2019-02-23T05:13:30.401Z,103406.67
2019-02-23T05:15:59.593Z,103406.06
2019-02-23T05:18:29.395Z,103406.88
2019-02-23T05:20:59.233Z,103404.65
2019-02-23T05:23:28.542Z,103413.27
2019-02-23T05:25:57.455Z,103413.27
2019-02-23T05:28:28.097Z,103406.46
2019-02-23T05:30:57.622Z,103410.94
2019-02-23T05:33:29.265Z,103418.53
2019-02-23T05:36:01.133Z,103420.52
2019-02-23T05:38:31.660Z,103416.08
2019-02-23T05:41:00.918Z,103414.13
2019-02-23T05:43:31.217Z,103414.32
2019-02-23T05:46:07.509Z,103410.23
2019-02-23T05:48:37.488Z,103414.66
2019-02-23T05:51:06.959Z,103412.66
2019-02-23T05:53:36.813Z,103420.22
2019-02-23T05:56:16.118Z,103413.05
2019-02-23T05:58:43.612Z,103418.59
2019-02-23T06:01:13.590Z,103434.80
2019-02-23T06:03:43.100Z,103435.03
2019-02-23T06:06:14.559Z,103446.07
2019-02-23T06:08:45.360Z,103440.48
2019-02-23T06:11:14.922Z,103445.17
2019-02-23T06:13:48.460Z,103447.77
2019-02-23T06:16:19.179Z,103447.69
2019-02-23T06:18:48.306Z,103450.67
2019-02-23T06:21:17.895Z,103447.52
2019-02-23T06:23:49.831Z,103444.27
2019-02-23T06:26:23.866Z,103445.67
2019-02-23T06:28:53.655Z,103455.21
2019-02-23T06:34:16.401Z,103463.54
2019-02-23T06:36:44.729Z,103454.34
2019-02-23T06:39:13.581Z,103460.66
2019-02-23T06:41:43.793Z,103468.81
2019-02-23T06:44:15.908Z,103467.22
2019-02-23T06:46:48.880Z,103461.42
2019-02-23T06:49:24.488Z,103467.89
2019-02-23T06:52:04.326Z,103475.13
2019-02-23T06:54:29.503Z,103475.73
2019-02-23T06:57:05.098Z,103478.05
2019-02-23T06:59:35.831Z,103465.25
2019-02-23T07:02:09.863Z,103458.28
2019-02-23T07:04:38.554Z,103458.28
2019-02-23T07:07:09.308Z,103459.04
2019-02-23T07:09:41.944Z,103455.28
2019-02-23T07:12:13.961Z,103454.16
2019-02-23T07:14:52.744Z,103455.67
2019-02-23T07:17:21.982Z,103452.26
2019-02-23T07:19:56.780Z,103457.41
2019-02-23T07:22:33.621Z,103462.81
2019-02-23T07:25:02.094Z,103462.30
2019-02-23T07:27:31.499Z,103460.36
2019-02-23T07:30:04.611Z,103454.05
2019-02-23T07:32:36.088Z,103461.02
2019-02-23T07:35:08.338Z,103465.66
2019-02-23T07:37:37.480Z,103466.48
2019-02-23T07:40:07.387Z,103458.94
2019-02-23T07:42:37.815Z,103457.77
2019-02-23T07:45:09.109Z,103464.20
2019-02-23T07:47:39.378Z,103461.50
2019-02-23T07:51:46.225Z,103451.48
2019-02-23T07:55:01.498Z,103458.89
2019-02-23T07:58:08.182Z,103450.57
2019-02-23T08:01:13.163Z,103451.45
2019-02-23T08:03:54.462Z,103441.98
2019-02-23T08:07:14.766Z,103451.99
2019-02-23T08:15:05.435Z,103445.27
2019-02-23T08:17:34.959Z,103453.16
2019-02-23T08:32:21.653Z,103445.94
2019-02-23T08:38:19.202Z,103450.23
2019-02-23T08:40:51.087Z,103444.72
2019-02-23T08:49:37.689Z,103437.99
2019-02-23T08:59:50.614Z,103441.66
2019-02-23T09:02:38.608Z,103440.95
2019-02-23T09:11:00.464Z,103436.70
2019-02-23T09:16:36.362Z,103452.53
2019-02-23T09:19:10.877Z,103450.91
2019-02-23T09:21:42.950Z,103443.59
2019-02-23T09:24:17.208Z,103448.23
2019-02-23T09:26:48.302Z,103452.19
2019-02-23T09:29:29.033Z,103452.19
2019-02-23T10:14:22.391Z,103440.25
2019-02-23T10:28:48.365Z,103425.30
2019-02-23T10:31:38.134Z,103425.27
2019-02-23T10:34:14.416Z,103424.06
2019-02-23T10:36:45.228Z,103418.17
2019-02-23T10:39:18.276Z,103427.84
2019-02-23T10:41:55.780Z,103418.78
2019-02-23T10:44:27.999Z,103424.28
2019-02-23T10:47:04.217Z,103420.48
2019-02-23T10:49:41.242Z,103424.81
2019-02-23T10:52:14.964Z,103419.27
2019-02-23T10:54:47.298Z,103410.83
2019-02-23T10:57:16.920Z,103407.52
2019-02-23T11:00:09.851Z,103413.73
2019-02-23T11:02:45.345Z,103409.70
2019-02-23T11:05:20.827Z,103406.61
2019-02-23T11:07:52.007Z,103400.61
2019-02-23T11:10:24.410Z,103395.00
2019-02-23T11:12:59.197Z,103394.14
2019-02-23T11:15:32.053Z,103394.14
2019-02-23T11:18:19.315Z,103395.86
2019-02-23T11:20:52.678Z,103394.87
2019-02-23T11:23:25.285Z,103377.81
2019-02-23T11:26:05.596Z,103387.95
2019-02-23T11:28:46.676Z,103378.47
2019-02-23T11:31:19.340Z,103317.98
2019-02-23T11:37:20.012Z,103361.14
2019-02-23T11:45:40.989Z,103338.85
2019-02-23T11:57:27.356Z,103332.79
2019-02-23T12:00:01.552Z,103332.19
2019-02-23T12:02:51.774Z,103336.85
2019-02-23T12:08:33.793Z,103325.16
2019-02-23T12:17:39.542Z,103314.42
2019-02-23T12:20:53.080Z,103308.42
2019-02-23T12:26:43.768Z,103306.94
2019-02-23T12:33:34.293Z,103317.78
2019-02-23T12:42:27.521Z,103314.89
2019-02-23T12:45:34.689Z,103308.73
2019-02-23T12:51:19.937Z,103299.66
2019-02-23T12:57:16.054Z,103285.83
2019-02-23T13:00:25.562Z,103285.29
2019-02-23T13:03:53.847Z,103276.17
2019-02-23T13:06:13.093Z,103268.47
2019-02-23T13:12:08.752Z,103282.50
2019-02-23T13:14:47.403Z,103266.95
2019-02-23T13:17:56.056Z,103271.91
2019-02-23T13:20:35.494Z,103266.56
2019-02-23T13:23:25.669Z,103273.89
2019-02-23T13:26:01.249Z,103278.13
2019-02-23T13:28:41.059Z,103275.93
2019-02-23T13:44:20.801Z,103273.13
2019-02-23T13:50:48.836Z,103262.33
2019-02-23T13:59:48.285Z,103258.68
2019-02-23T14:10:32.274Z,103258.00
2019-02-23T14:13:27.785Z,103260.53
2019-02-23T14:19:27.810Z,103252.05
2019-02-23T14:22:30.018Z,103250.35
2019-02-23T14:31:06.992Z,103242.53
2019-02-23T14:34:00.211Z,103246.44
2019-02-23T14:43:08.518Z,103251.14
2019-02-23T14:52:26.241Z,103249.47
2019-02-23T14:55:17.484Z,103246.25
2019-02-23T15:19:54.901Z,103238.11
2019-02-23T15:22:43.001Z,103232.18
2019-02-23T15:25:55.797Z,103231.77
2019-02-23T15:28:58.240Z,103226.44
2019-02-23T15:40:55.703Z,103222.07
2019-02-23T15:46:15.061Z,103228.42
2019-02-23T15:48:56.368Z,103219.51
2019-02-23T15:58:10.793Z,103228.12
2019-02-23T16:03:45.736Z,103229.19
2019-02-23T16:06:34.248Z,103229.09
2019-02-23T16:09:06.734Z,103233.45
2019-02-23T16:11:41.006Z,103224.62
2019-02-23T16:14:26.439Z,103226.35
2019-02-23T18:09:01.848Z,103255.23
2019-02-23T18:11:37.120Z,103245.48
2019-02-23T18:14:05.847Z,103245.42
2019-02-23T18:19:28.280Z,103250.34
2019-02-23T18:22:07.114Z,103252.41
2019-02-23T18:24:43.332Z,103252.52
2019-02-23T18:27:15.464Z,103250.25
2019-02-23T18:30:20.587Z,103249.23
2019-02-23T18:32:52.278Z,103256.24
2019-02-23T19:00:36.417Z,103266.70
2019-02-23T19:02:59.337Z,103277.52
2019-02-23T19:05:32.395Z,103286.47
2019-02-23T19:08:13.785Z,103284.20
2019-02-23T19:11:02.219Z,103282.39
2019-02-23T19:13:36.930Z,103288.67
2019-02-23T19:16:43.546Z,103287.63
2019-02-23T19:19:23.076Z,103278.23
2019-02-23T19:22:06.569Z,103274.31
2019-02-23T19:27:52.659Z,103279.81
2019-02-23T19:30:59.267Z,103272.35
2019-02-23T19:39:38.366Z,103275.59
2019-02-23T19:43:04.418Z,103275.30
2019-02-23T19:44:57.669Z,103277.91
2019-02-23T20:03:22.035Z,103283.16
2019-02-23T20:06:14.916Z,103290.81
2019-02-23T21:12:01.838Z,103287.06
2019-02-23T21:17:27.195Z,103287.48
2019-02-23T21:20:02.969Z,103287.38
2019-02-23T21:22:32.953Z,103294.96
2019-02-23T21:25:01.355Z,103297.82
2019-02-23T21:27:39.744Z,103300.28
2019-02-23T21:32:57.525Z,103287.37
2019-02-23T21:36:06.564Z,103289.06
2019-02-23T21:39:10.540Z,103286.14
2019-02-23T21:45:26.312Z,103286.81
2019-02-23T21:50:57.202Z,103286.38
2019-02-23T21:56:59.328Z,103286.27
2019-02-23T22:02:27.274Z,103276.27
2019-02-23T22:10:57.354Z,103279.58
2019-02-23T22:13:58.795Z,103284.08
2019-02-23T22:19:21.774Z,103284.55
2019-02-23T22:21:54.106Z,103282.30
2019-02-23T22:24:26.009Z,103286.75
2019-02-23T22:26:54.642Z,103280.55
2019-02-23T22:29:23.308Z,103280.55
2019-02-23T22:31:54.233Z,103284.75
2019-02-23T22:34:23.072Z,103289.48
2019-02-23T22:37:10.908Z,103284.42
2019-02-23T22:39:40.178Z,103289.84
2019-02-23T22:42:09.117Z,103283.73
2019-02-23T22:44:40.104Z,103283.05
2019-02-23T22:47:53.827Z,103279.58
2019-02-23T22:53:39.670Z,103286.69
2019-02-23T22:56:17.672Z,103279.83
2019-02-23T23:13:38.958Z,103279.13
2019-02-23T23:28:26.846Z,103271.14
2019-02-23T23:31:28.665Z,103274.28
2019-02-23T23:36:58.806Z,103276.12
2019-02-23T23:39:37.614Z,103274.52
2019-02-23T23:42:25.186Z,103272.41
2019-02-23T23:49:13.496Z,103269.48
2019-02-23T23:51:49.683Z,103266.55
2019-02-23T23:54:18.166Z,103268.20
2019-02-23T23:56:46.988Z,103265.41
2019-02-23T23:59:19.962Z,103274.61
